QTR422 OTHH-HRYR
Flight info
| Callsign | QTR422 |
|---|---|
| Flight time | N/A |
| Altitude | 30000 |
| Route | DATRI DCT DEMTA DCT KUTMA M318 NITPO/N0465F320 M318 HDH A408 BOPSA UL432 GWZ/N0462F340 L432 EKBUL UL432 ALSAR ALSAR1B |
| Aircraft | A321/M-SDE3FGHIRWY/LB1 |
Departure
| Time | N/A |
|---|---|
| Airport | Hamad International Airport (OTHH) |
Arrival
| Time | 2026-04-21 12:41 |
|---|---|
| Airport | Kigali International Airport (HRYR) |
| Time | Latitude | Longitude | Altitude | Speed | Heading |
|---|---|---|---|---|---|
| 2026-04-21 12:04 | 0.35272 | 32.74430 | 33897 ft | 472 kts | 225° |
| 2026-04-21 12:05 | 0.32977 | 32.72083 | 33895 ft | 472 kts | 225° |
| 2026-04-21 12:05 | 0.28388 | 32.67397 | 33914 ft | 471 kts | 225° |
| 2026-04-21 12:06 | 0.23809 | 32.62716 | 33962 ft | 470 kts | 225° |
| 2026-04-21 12:06 | 0.19237 | 32.58044 | 34000 ft | 469 kts | 225° |
| 2026-04-21 12:07 | 0.14672 | 32.53385 | 34010 ft | 468 kts | 225° |
| 2026-04-21 12:07 | 0.10118 | 32.48739 | 34030 ft | 468 kts | 225° |
| 2026-04-21 12:08 | 0.05569 | 32.44095 | 34029 ft | 467 kts | 225° |
| 2026-04-21 12:08 | 0.01146 | 32.39344 | 34028 ft | 467 kts | 227° |
| 2026-04-21 12:08 | -0.00979 | 32.36934 | 33923 ft | 467 kts | 228° |
| 2026-04-21 12:09 | -0.03111 | 32.34485 | 33913 ft | 467 kts | 227° |
| 2026-04-21 12:09 | -0.07395 | 32.29598 | 33911 ft | 468 kts | 227° |
| 2026-04-21 12:10 | -0.11730 | 32.24751 | 33911 ft | 468 kts | 227° |
| 2026-04-21 12:10 | -0.16081 | 32.19909 | 33912 ft | 468 kts | 227° |
| 2026-04-21 12:11 | -0.20423 | 32.15070 | 33914 ft | 468 kts | 227° |
| 2026-04-21 12:11 | -0.24766 | 32.10215 | 33917 ft | 468 kts | 227° |
| 2026-04-21 12:12 | -0.29103 | 32.05362 | 33913 ft | 469 kts | 227° |
| 2026-04-21 12:12 | -0.33453 | 32.00495 | 33912 ft | 469 kts | 227° |
| 2026-04-21 12:13 | -0.37774 | 31.95652 | 33916 ft | 470 kts | 227° |
| 2026-04-21 12:13 | -0.42129 | 31.90783 | 33914 ft | 470 kts | 227° |
| 2026-04-21 12:14 | -0.46492 | 31.85920 | 33911 ft | 470 kts | 226° |
| 2026-04-21 12:14 | -0.50855 | 31.81049 | 33910 ft | 470 kts | 227° |
| 2026-04-21 12:15 | -0.55199 | 31.76178 | 33914 ft | 470 kts | 227° |
| 2026-04-21 12:15 | -0.59559 | 31.71301 | 33959 ft | 470 kts | 227° |
| 2026-04-21 12:16 | -0.63915 | 31.66424 | 33961 ft | 471 kts | 227° |
| 2026-04-21 12:16 | -0.68266 | 31.61534 | 34012 ft | 471 kts | 228° |
| 2026-04-21 12:17 | -0.72457 | 31.56568 | 34012 ft | 471 kts | 229° |
| 2026-04-21 12:17 | -0.76617 | 31.51516 | 34015 ft | 471 kts | 229° |
| 2026-04-21 12:18 | -0.80799 | 31.46469 | 34003 ft | 472 kts | 229° |
| 2026-04-21 12:18 | -0.85030 | 31.41436 | 34005 ft | 473 kts | 228° |
| 2026-04-21 12:19 | -0.89268 | 31.36408 | 34010 ft | 473 kts | 229° |
| 2026-04-21 12:19 | -0.93496 | 31.31361 | 34013 ft | 474 kts | 229° |
| 2026-04-21 12:19 | -0.95604 | 31.28837 | 33905 ft | 471 kts | 229° |
| 2026-04-21 12:20 | -0.97684 | 31.26347 | 33632 ft | 462 kts | 229° |
| 2026-04-21 12:20 | -0.99737 | 31.23896 | 33379 ft | 459 kts | 229° |
| 2026-04-21 12:20 | -1.01796 | 31.21506 | 33132 ft | 459 kts | 227° |
| 2026-04-21 12:20 | -1.03935 | 31.19140 | 32884 ft | 457 kts | 226° |
| 2026-04-21 12:21 | -1.06095 | 31.16824 | 32646 ft | 455 kts | 226° |
| 2026-04-21 12:21 | -1.08263 | 31.14527 | 32402 ft | 454 kts | 226° |
| 2026-04-21 12:21 | -1.10420 | 31.12238 | 32159 ft | 451 kts | 226° |
| 2026-04-21 12:21 | -1.12556 | 31.09952 | 31920 ft | 449 kts | 225° |
| 2026-04-21 12:22 | -1.14676 | 31.07658 | 31685 ft | 448 kts | 226° |
| 2026-04-21 12:22 | -1.16778 | 31.05367 | 31452 ft | 446 kts | 226° |
| 2026-04-21 12:22 | -1.18863 | 31.03085 | 31225 ft | 444 kts | 226° |
| 2026-04-21 12:22 | -1.20941 | 31.00808 | 30989 ft | 441 kts | 226° |
| 2026-04-21 12:23 | -1.22999 | 30.98560 | 30555 ft | 437 kts | 226° |
| 2026-04-21 12:23 | -1.25044 | 30.96326 | 30083 ft | 434 kts | 226° |
| 2026-04-21 12:23 | -1.27081 | 30.94106 | 29561 ft | 431 kts | 225° |
| 2026-04-21 12:23 | -1.29099 | 30.91913 | 29115 ft | 427 kts | 225° |
| 2026-04-21 12:24 | -1.31098 | 30.89738 | 28676 ft | 423 kts | 226° |
| 2026-04-21 12:24 | -1.33075 | 30.87586 | 28252 ft | 418 kts | 226° |
| 2026-04-21 12:24 | -1.35037 | 30.85455 | 27818 ft | 414 kts | 225° |
| 2026-04-21 12:24 | -1.36975 | 30.83347 | 27408 ft | 410 kts | 226° |
| 2026-04-21 12:25 | -1.38893 | 30.81258 | 26997 ft | 406 kts | 226° |
| 2026-04-21 12:25 | -1.40789 | 30.79194 | 26593 ft | 402 kts | 226° |
| 2026-04-21 12:25 | -1.42667 | 30.77148 | 26195 ft | 398 kts | 225° |
| 2026-04-21 12:25 | -1.44464 | 30.75064 | 25807 ft | 395 kts | 232° |
| 2026-04-21 12:26 | -1.45900 | 30.72733 | 25407 ft | 393 kts | 243° |
| 2026-04-21 12:26 | -1.47006 | 30.70287 | 25003 ft | 390 kts | 244° |
| 2026-04-21 12:26 | -1.48105 | 30.67822 | 24600 ft | 387 kts | 245° |
| 2026-04-21 12:26 | -1.49199 | 30.65373 | 24186 ft | 385 kts | 245° |
| 2026-04-21 12:27 | -1.50292 | 30.62939 | 23776 ft | 382 kts | 245° |
| 2026-04-21 12:27 | -1.51378 | 30.60521 | 23307 ft | 381 kts | 245° |
| 2026-04-21 12:27 | -1.52456 | 30.58116 | 22889 ft | 377 kts | 245° |
| 2026-04-21 12:27 | -1.53523 | 30.55736 | 22454 ft | 374 kts | 245° |
| 2026-04-21 12:28 | -1.54580 | 30.53373 | 22026 ft | 371 kts | 245° |
| 2026-04-21 12:28 | -1.55628 | 30.51032 | 21616 ft | 368 kts | 245° |
| 2026-04-21 12:28 | -1.56668 | 30.48706 | 21198 ft | 366 kts | 245° |
| 2026-04-21 12:28 | -1.57702 | 30.46388 | 20777 ft | 364 kts | 245° |
| 2026-04-21 12:29 | -1.58397 | 30.44831 | 20505 ft | 363 kts | 245° |
| 2026-04-21 12:29 | -1.59411 | 30.42563 | 20088 ft | 361 kts | 245° |
| 2026-04-21 12:29 | -1.60433 | 30.40275 | 19670 ft | 359 kts | 245° |
| 2026-04-21 12:29 | -1.61452 | 30.38001 | 19272 ft | 358 kts | 245° |
| 2026-04-21 12:30 | -1.62470 | 30.35734 | 18857 ft | 356 kts | 245° |
| 2026-04-21 12:30 | -1.63482 | 30.33477 | 18447 ft | 355 kts | 245° |
| 2026-04-21 12:30 | -1.64490 | 30.31228 | 17987 ft | 354 kts | 245° |
| 2026-04-21 12:30 | -1.65496 | 30.28981 | 17574 ft | 352 kts | 245° |
| 2026-04-21 12:31 | -1.66824 | 30.26008 | 17037 ft | 348 kts | 245° |
| 2026-04-21 12:31 | -1.67476 | 30.24551 | 16769 ft | 347 kts | 245° |
| 2026-04-21 12:31 | -1.68456 | 30.22361 | 16364 ft | 343 kts | 245° |
| 2026-04-21 12:31 | -1.69424 | 30.20199 | 15969 ft | 339 kts | 245° |
| 2026-04-21 12:32 | -1.70387 | 30.18051 | 15573 ft | 338 kts | 245° |
| 2026-04-21 12:32 | -1.71343 | 30.15916 | 15191 ft | 336 kts | 245° |
| 2026-04-21 12:32 | -1.72295 | 30.13788 | 14802 ft | 335 kts | 245° |
| 2026-04-21 12:32 | -1.73244 | 30.11665 | 14409 ft | 334 kts | 244° |
| 2026-04-21 12:33 | -1.74189 | 30.09552 | 14021 ft | 333 kts | 245° |
| 2026-04-21 12:33 | -1.75136 | 30.07438 | 13600 ft | 333 kts | 244° |
| 2026-04-21 12:33 | -1.76067 | 30.05360 | 13209 ft | 330 kts | 244° |
| 2026-04-21 12:33 | -1.77003 | 30.03275 | 12828 ft | 329 kts | 244° |
| 2026-04-21 12:34 | -1.77933 | 30.01200 | 12438 ft | 326 kts | 244° |
| 2026-04-21 12:34 | -1.78859 | 29.99132 | 12002 ft | 327 kts | 245° |
| 2026-04-21 12:34 | -1.79783 | 29.97060 | 11678 ft | 323 kts | 244° |
| 2026-04-21 12:34 | -1.80684 | 29.95039 | 11559 ft | 314 kts | 244° |
| 2026-04-21 12:35 | -1.81604 | 29.93102 | 11427 ft | 302 kts | 235° |
| 2026-04-21 12:35 | -1.82935 | 29.91546 | 11251 ft | 288 kts | 214° |
| 2026-04-21 12:35 | -1.84635 | 29.90518 | 10958 ft | 288 kts | 197° |
| 2026-04-21 12:35 | -1.86563 | 29.90055 | 10595 ft | 283 kts | 184° |
| 2026-04-21 12:36 | -1.88515 | 29.89738 | 10235 ft | 284 kts | 184° |
| 2026-04-21 12:36 | -1.90455 | 29.89738 | 9750 ft | 278 kts | 159° |
| 2026-04-21 12:36 | -1.92078 | 29.90671 | 9293 ft | 265 kts | 130° |
| 2026-04-21 12:36 | -1.93004 | 29.92194 | 8933 ft | 254 kts | 105° |
| 2026-04-21 12:37 | -1.93339 | 29.93883 | 8615 ft | 242 kts | 100° |
| 2026-04-21 12:37 | -1.93622 | 29.95514 | 8258 ft | 232 kts | 99° |
| 2026-04-21 12:37 | -1.93894 | 29.97076 | 7965 ft | 226 kts | 99° |
| 2026-04-21 12:37 | -1.94160 | 29.98603 | 7673 ft | 220 kts | 100° |
| 2026-04-21 12:38 | -1.94420 | 30.00086 | 7346 ft | 213 kts | 100° |
| 2026-04-21 12:38 | -1.94670 | 30.01522 | 7064 ft | 206 kts | 101° |
| 2026-04-21 12:38 | -1.94910 | 30.02892 | 6782 ft | 199 kts | 100° |
| 2026-04-21 12:38 | -1.95143 | 30.04217 | 6530 ft | 189 kts | 101° |
| 2026-04-21 12:39 | -1.95363 | 30.05464 | 6282 ft | 173 kts | 102° |
| 2026-04-21 12:39 | -1.95563 | 30.06610 | 6049 ft | 167 kts | 101° |
| 2026-04-21 12:39 | -1.95759 | 30.07726 | 5824 ft | 160 kts | 102° |
| 2026-04-21 12:39 | -1.95956 | 30.08822 | 5603 ft | 161 kts | 102° |
| 2026-04-21 12:40 | -1.96160 | 30.09928 | 5415 ft | 160 kts | 99° |
| 2026-04-21 12:40 | -1.96347 | 30.11024 | 5194 ft | 160 kts | 101° |
| 2026-04-21 12:40 | -1.96540 | 30.12115 | 4981 ft | 158 kts | 101° |
| 2026-04-21 12:40 | -1.96726 | 30.13173 | 4886 ft | 142 kts | 99° |
| 2026-04-21 12:41 | -1.96878 | 30.14017 | 4885 ft | 108 kts | 100° |
| 2026-04-21 12:41 | -1.96981 | 30.14616 | 4881 ft | 53 kts | 99° |
| 2026-04-21 12:41 | -1.97007 | 30.14789 | 4884 ft | 13 kts | 86° |
| 2026-04-21 12:41 | -1.97017 | 30.14800 | 4882 ft | 2 kts | 229° |
| 2026-04-21 12:42 | -1.97009 | 30.14755 | 4878 ft | 12 kts | 280° |
| 2026-04-21 12:42 | -1.96990 | 30.14645 | 4882 ft | 18 kts | 280° |
| 2026-04-21 12:42 | -1.96965 | 30.14506 | 4875 ft | 24 kts | 280° |
| 2026-04-21 12:42 | -1.96934 | 30.14338 | 4883 ft | 24 kts | 280° |
| 2026-04-21 12:43 | -1.96906 | 30.14172 | 4884 ft | 25 kts | 279° |
| 2026-04-21 12:43 | -1.96876 | 30.14002 | 4885 ft | 25 kts | 280° |
| 2026-04-21 12:43 | -1.96847 | 30.13836 | 4888 ft | 24 kts | 280° |
| 2026-04-21 12:43 | -1.96818 | 30.13672 | 4888 ft | 24 kts | 280° |
| 2026-04-21 12:44 | -1.96788 | 30.13506 | 4888 ft | 25 kts | 280° |
| 2026-04-21 12:44 | -1.96745 | 30.13360 | 4883 ft | 17 kts | 325° |
| 2026-04-21 12:44 | -1.96630 | 30.13374 | 4885 ft | 16 kts | 31° |
| 2026-04-21 12:44 | -1.96604 | 30.13468 | 4887 ft | 12 kts | 73° |
| 2026-04-21 12:45 | -1.96529 | 30.13502 | 4891 ft | 13 kts | 358° |
| 2026-04-21 12:45 | -1.96456 | 30.13474 | 4888 ft | 8 kts | 326° |
| 2026-04-21 12:45 | -1.96436 | 30.13461 | 4884 ft | 2 kts | 328° |
| 2026-04-21 12:45 | -1.96435 | 30.13460 | 4885 ft | 0 kts | 328° |